Orion, Michigan
Current Conditions -  °F | °C
As of 4:53 AM on Tuesday 27 Jan 2015 (Local Time) from KPTK Reporting Station
Clear Clear  
Wind Chill:   Ceiling: Unl
Heat Index:   Visibility: 10mi
Dew Point:   Wind: 3mph
Humidity: 87%   Direction: 350°N
Pressure: 29.97"   Gusts: NA
Location:  42.7458°N, 83.2617°W
Report Text: KPTK 270953Z 35003KT 10SM CLR M13/M15 A2997 RMK AO2 SLP166 I1000 T11331150
Loading
Personal Weather Stations






























Interactive Weather Map New forecast layout! Learn more

10-Day Weather Forecast

Advertisements
Track Severe Weather on mobile